Time,TemperatureF,DewpointF,PressureIn,WindDirection,WindDirectionDegrees,WindSpeedMPH,WindSpeedGustMPH,Humidity,HourlyPrecipIn,Conditions,Clouds,dailyrainin,SoftwareType,DateUTC
2017-02-21 00:50:00,60.3,50.5,29.99,SSE,152,1.0,6.0,70,0.00,CLR,CLR,0.00,WeatherDisplay:10.37,2017-02-21 06:50:00,
2017-02-21 01:02:00,60.3,50.5,29.99,SE,145,1.0,5.0,70,0.00,CLR,CLR,0.00,WeatherDisplay:10.37,2017-02-21 07:02:00,
2017-02-21 01:10:00,60.3,50.5,29.99,SE,141,2.0,4.0,70,0.00,CLR,CLR,0.00,WeatherDisplay:10.37,2017-02-21 07:10:00,
2017-02-21 01:22:00,60.4,50.5,29.99,SE,140,1.0,5.0,70,0.00,CLR,CLR,0.00,WeatherDisplay:10.37,2017-02-21 07:22:00,
2017-02-21 01:42:00,60.5,50.6,29.99,SSE,168,2.0,5.0,70,0.00,CLR,CLR,0.00,WeatherDisplay:10.37,2017-02-21 07:42:00,
2017-02-21 02:21:00,60.1,50.7,29.98,SSE,162,1.0,6.0,71,0.00,CLR,CLR,0.00,WeatherDisplay:10.37,2017-02-21 08:21:00,
2017-02-21 02:32:00,60.0,50.6,29.98,SSE,158,1.0,5.0,71,0.00,CLR,CLR,0.00,WeatherDisplay:10.37,2017-02-21 08:32:00,
2017-02-21 02:40:00,59.8,50.8,29.97,SSE,159,1.0,8.0,72,0.00,CLR,CLR,0.00,WeatherDisplay:10.37,2017-02-21 08:40:00,
2017-02-21 03:22:00,60.0,50.9,29.97,SSE,157,3.0,8.0,72,0.00,CLR,CLR,0.00,WeatherDisplay:10.37,2017-02-21 09:22:00,
2017-02-21 04:02:00,59.6,50.9,29.98,SSE,164,1.0,11.0,73,0.00,CLR,CLR,0.00,WeatherDisplay:10.37,2017-02-21 10:02:00,
2017-02-21 04:10:00,59.4,50.7,29.97,SSE,151,2.0,6.0,73,0.00,CLR,CLR,0.00,WeatherDisplay:10.37,2017-02-21 10:10:00,
2017-02-21 04:22:00,59.4,51.1,29.97,SSE,159,2.0,5.0,74,0.00,CLR,CLR,0.00,WeatherDisplay:10.37,2017-02-21 10:22:00,
2017-02-21 04:52:00,59.1,51.2,29.97,SSE,161,1.0,6.0,75,0.00,CLR,CLR,0.00,WeatherDisplay:10.37,2017-02-21 10:52:00,
2017-02-21 06:02:00,59.0,51.4,29.97,SSE,159,1.0,7.0,76,0.00,CLR,CLR,0.00,WeatherDisplay:10.37,2017-02-21 12:02:00,
2017-02-21 06:42:00,59.0,51.8,29.99,South,176,2.0,8.0,77,0.00,CLR,CLR,0.00,WeatherDisplay:10.37,2017-02-21 12:42:00,
2017-02-21 06:52:00,58.8,52.3,29.99,South,181,2.0,6.0,79,0.00,CLR,CLR,0.00,WeatherDisplay:10.37,2017-02-21 12:52:00,
2017-02-21 07:12:00,57.6,52.8,29.99,SSE,163,1.0,5.0,84,0.00,CLR,CLR,0.00,WeatherDisplay:10.37,2017-02-21 13:12:00,
2017-02-21 07:22:00,57.6,52.8,29.99,SSE,154,1.0,4.0,84,0.00,CLR,CLR,0.00,WeatherDisplay:10.37,2017-02-21 13:22:00,
2017-02-21 08:22:00,58.4,53.3,29.99,South,175,2.0,9.0,83,0.00,CLR,CLR,0.01,WeatherDisplay:10.37,2017-02-21 14:22:00,
2017-02-21 08:30:00,58.2,53.7,29.97,SSE,159,3.0,5.0,85,0.01,RA,RA,0.01,WeatherDisplay:10.37,2017-02-21 14:30:00,
2017-02-21 08:42:00,58.2,53.7,29.97,SE,127,3.0,8.0,85,0.00,,,0.01,WeatherDisplay:10.37,2017-02-21 14:42:00,
2017-02-21 09:11:00,58.9,54.0,29.95,SE,143,2.0,7.0,84,0.00,CLR,CLR,0.01,WeatherDisplay:10.37,2017-02-21 15:11:00,
2017-02-21 10:32:00,62.7,54.3,29.96,South,188,3.0,13.0,74,0.00,CLR,CLR,0.01,WeatherDisplay:10.37,2017-02-21 16:32:00,
2017-02-21 10:42:00,62.9,54.5,29.97,SSW,192,3.0,16.0,74,0.00,CLR,CLR,0.01,WeatherDisplay:10.37,2017-02-21 16:42:00,
2017-02-21 10:52:00,63.5,55.1,29.96,South,171,3.0,11.0,74,0.00,CLR,CLR,0.01,WeatherDisplay:10.37,2017-02-21 16:52:00,
2017-02-21 11:12:00,63.6,54.8,29.96,SSE,166,6.0,12.0,73,0.00,CLR,CLR,0.01,WeatherDisplay:10.37,2017-02-21 17:12:00,
2017-02-21 11:20:00,63.4,54.6,29.95,SSE,164,5.0,12.0,73,0.00,CLR,CLR,0.01,WeatherDisplay:10.37,2017-02-21 17:20:00,
2017-02-21 12:00:00,65.1,55.1,29.93,South,185,7.0,17.0,70,0.00,CLR,CLR,0.01,WeatherDisplay:10.37,2017-02-21 18:00:00,
2017-02-21 12:30:00,64.7,54.7,29.91,SSE,152,7.0,14.0,70,0.00,CLR,CLR,0.01,WeatherDisplay:10.37,2017-02-21 18:30:00,
2017-02-21 12:40:00,64.9,54.9,29.90,SE,144,6.0,10.0,70,0.00,CLR,CLR,0.01,WeatherDisplay:10.37,2017-02-21 18:40:00,
2017-02-21 12:52:00,65.3,55.2,29.90,SSE,156,5.0,10.0,70,0.00,CLR,CLR,0.01,WeatherDisplay:10.37,2017-02-21 18:52:00,
2017-02-21 13:00:00,65.1,55.1,29.89,SE,145,7.0,12.0,70,0.00,CLR,CLR,0.01,WeatherDisplay:10.37,2017-02-21 19:00:00,
2017-02-21 13:32:00,64.7,55.1,29.89,SSE,157,5.0,12.0,71,0.00,CLR,CLR,0.01,WeatherDisplay:10.37,2017-02-21 19:32:00,
2017-02-21 14:01:00,63.8,55.3,29.91,South,189,3.0,9.0,74,0.00,CLR,CLR,0.01,WeatherDisplay:10.37,2017-02-21 20:01:00,
2017-02-21 14:21:00,62.7,55.4,29.91,South,182,3.0,9.0,77,0.00,CLR,CLR,0.01,WeatherDisplay:10.37,2017-02-21 20:21:00,
2017-02-21 14:42:00,62.1,55.9,29.91,South,177,2.0,8.0,80,0.00,CLR,CLR,0.01,WeatherDisplay:10.37,2017-02-21 20:42:00,
2017-02-21 14:50:00,61.6,56.3,29.91,SSE,156,3.0,8.0,83,0.00,CLR,CLR,0.01,WeatherDisplay:10.37,2017-02-21 20:50:00,
2017-02-21 15:00:00,61.3,56.1,29.91,SE,142,2.0,9.0,83,0.00,CLR,CLR,0.01,WeatherDisplay:10.37,2017-02-21 21:00:00,
2017-02-21 15:22:00,60.9,56.0,29.91,South,170,3.0,8.0,84,0.00,CLR,CLR,0.01,WeatherDisplay:10.37,2017-02-21 21:22:00,
2017-02-21 15:42:00,59.9,56.1,29.93,SSW,197,3.0,8.0,87,0.01,RA,RA,0.02,WeatherDisplay:10.37,2017-02-21 21:42:00,
2017-02-21 15:52:00,59.3,55.8,29.92,South,177,6.0,10.0,88,0.00,,,0.02,WeatherDisplay:10.37,2017-02-21 21:52:00,
2017-02-21 16:11:00,58.9,56.0,29.92,SSE,157,3.0,10.0,90,0.00,CLR,CLR,0.02,WeatherDisplay:10.37,2017-02-21 22:11:00,
2017-02-21 16:20:00,58.6,56.0,29.92,SE,145,2.0,4.0,91,0.01,RA,RA,0.03,WeatherDisplay:10.37,2017-02-21 22:20:00,
2017-02-21 16:32:00,58.5,55.9,29.92,SE,134,1.0,4.0,91,0.00,RA,RA,0.03,WeatherDisplay:10.37,2017-02-21 22:32:00,
2017-02-21 16:42:00,58.2,55.9,29.92,SSE,150,2.0,7.0,92,0.00,CLR,CLR,0.03,WeatherDisplay:10.37,2017-02-21 22:42:00,
2017-02-21 17:22:00,57.6,55.3,29.92,SSE,149,3.0,10.0,92,0.00,CLR,CLR,0.03,WeatherDisplay:10.37,2017-02-21 23:22:00,
2017-02-21 17:31:00,57.4,55.4,29.93,SSE,157,2.0,8.0,93,0.01,RA,RA,0.04,WeatherDisplay:10.37,2017-02-21 23:31:00,
2017-02-21 18:12:00,56.8,55.1,29.93,SE,130,1.0,7.0,94,0.01,CLR,CLR,0.05,WeatherDisplay:10.37,2017-02-22 00:12:00,
2017-02-21 18:20:00,56.7,55.0,29.92,SE,127,1.0,5.0,94,0.01,RA,RA,0.06,WeatherDisplay:10.37,2017-02-22 00:20:00,
2017-02-21 18:32:00,56.7,55.0,29.92,ESE,105,1.0,3.0,94,0.00,,,0.06,WeatherDisplay:10.37,2017-02-22 00:32:00,
2017-02-21 18:52:00,56.5,54.8,29.92,East,92,2.0,7.0,94,0.00,CLR,CLR,0.06,WeatherDisplay:10.37,2017-02-22 00:52:00,
2017-02-21 19:02:00,56.4,55.0,29.91,East,98,2.0,5.0,95,0.01,RA,RA,0.07,WeatherDisplay:10.37,2017-02-22 01:02:00,
2017-02-21 19:22:00,56.3,54.9,29.92,ESE,110,1.0,5.0,95,0.00,,,0.07,WeatherDisplay:10.37,2017-02-22 01:22:00,
2017-02-21 19:32:00,56.2,54.8,29.94,SE,133,1.0,3.0,95,0.00,CLR,CLR,0.07,WeatherDisplay:10.37,2017-02-22 01:32:00,
2017-02-21 19:41:00,56.2,54.8,29.93,SSE,153,1.0,2.0,95,0.00,CLR,CLR,0.07,WeatherDisplay:10.37,2017-02-22 01:41:00,
2017-02-21 19:52:00,56.1,54.7,29.93,SSE,158,0.0,3.0,95,0.00,CLR,CLR,0.07,WeatherDisplay:10.37,2017-02-22 01:52:00,
2017-02-21 20:01:00,56.0,54.6,29.93,ESE,123,1.0,3.0,95,0.00,CLR,CLR,0.07,WeatherDisplay:10.37,2017-02-22 02:01:00,
2017-02-21 20:10:00,55.9,54.5,29.92,ESE,110,1.0,3.0,95,0.00,CLR,CLR,0.07,WeatherDisplay:10.37,2017-02-22 02:10:00,